Time;durP1;ratioP1;P1;durP2;ratioP2;P2;SDS_P1;SDS_P2;PMS_P1;PMS_P2;Temp;Humidity;BMP_temperature;BMP_pressure;BME280_temperature;BME280_humidity;BME280_pressure;Samples;Min_cycle;Max_cycle;Signal;HPM_P1;HPM_P2
2023/04/08 00:02:00;;;;;;;160.45;96.07;;;179.70;2252.80;;;;;;5032102;28;20044;-86
2023/04/08 00:04:26;;;;;;;157.55;94.35;;;179.80;2252.80;;;;;;5032380;28;20045;-83
2023/04/08 00:06:52;;;;;;;138.50;85.22;;;179.90;2252.80;;;;;;5032315;28;20402;-84
2023/04/08 00:09:17;;;;;;;122.07;74.22;;;179.90;2252.80;;;;;;5032184;28;20036;-84
2023/04/08 00:11:43;;;;;;;120.28;75.53;;;179.70;2252.80;;;;;;5032317;28;20053;-87
2023/04/08 00:14:09;;;;;;;97.55;62.58;;;179.90;2252.80;;;;;;5032344;28;20091;-85
2023/04/08 00:16:35;;;;;;;90.38;56.42;;;179.70;2252.80;;;;;;5033245;28;20033;-81
2023/04/08 00:19:01;;;;;;;88.63;59.47;;;179.70;2252.80;;;;;;5035961;28;20026;-83
2023/04/08 00:21:27;;;;;;;85.60;57.65;;;179.70;2252.80;;;;;;5036037;28;20029;-82
2023/04/08 00:23:52;;;;;;;89.25;58.03;;;179.70;2252.80;;;;;;5035626;28;20053;-85
2023/04/08 00:26:19;;;;;;;89.57;57.17;;;179.80;2252.80;;;;;;5035847;28;20535;-85
2023/04/08 00:28:45;;;;;;;82.00;56.35;;;179.90;2252.80;;;;;;5035823;28;20029;-85
2023/04/08 00:31:11;;;;;;;93.32;60.33;;;179.90;2252.80;;;;;;5035467;28;20025;-84
2023/04/08 00:33:37;;;;;;;92.07;59.45;;;179.70;2252.80;;;;;;5035635;28;20025;-82
2023/04/08 00:36:02;;;;;;;83.70;56.55;;;179.80;2252.80;;;;;;5035408;28;20080;-83
2023/04/08 00:38:28;;;;;;;86.72;55.30;;;179.80;2252.80;;;;;;5035416;28;20049;-84
2023/04/08 00:40:54;;;;;;;82.30;55.25;;;179.60;2252.80;;;;;;5035647;28;20029;-84
2023/04/08 00:43:20;;;;;;;85.30;56.50;;;179.60;2252.80;;;;;;5035563;28;20029;-84
2023/04/08 00:45:47;;;;;;;115.35;68.85;;;179.50;2252.80;;;;;;5035434;28;20029;-85
2023/04/08 00:48:13;;;;;;;118.07;73.15;;;179.60;2252.80;;;;;;5035471;28;20032;-85
2023/04/08 00:50:39;;;;;;;126.50;80.80;;;179.60;2252.80;;;;;;5035204;28;20037;-82
2023/04/08 00:53:05;;;;;;;117.15;77.22;;;179.60;2252.80;;;;;;5035243;28;20048;-85
2023/04/08 00:55:31;;;;;;;112.35;75.55;;;179.60;2252.80;;;;;;5035432;28;20057;-81
2023/04/08 00:57:57;;;;;;;93.93;63.80;;;179.60;2252.80;;;;;;5033922;28;20477;-79
2023/04/08 01:00:24;;;;;;;108.70;68.47;;;179.50;2252.80;;;;;;5034646;28;20022;-82
2023/04/08 01:03:01;;;;;;;97.50;62.13;;;179.40;2252.80;;;;;;5017497;28;20465;-85
2023/04/08 01:05:30;;;;;;;82.22;56.25;;;179.30;2252.80;;;;;;5034897;28;20481;-84
2023/04/08 01:08:01;;;;;;;81.63;53.88;;;179.30;2252.80;;;;;;5034933;28;20124;-86
2023/04/08 01:10:33;;;;;;;61.97;44.22;;;179.20;2252.80;;;;;;5018599;28;20084;-82
2023/04/08 01:13:08;;;;;;;76.53;49.45;;;154.50;2252.80;;;;;;5018191;28;20057;-82
2023/04/08 01:15:38;;;;;;;84.88;52.55;;;154.40;2252.80;;;;;;5018435;28;20029;-86
2023/04/08 01:18:11;;;;;;;99.03;61.08;;;179.20;2252.80;;;;;;5018230;28;20029;-84
2023/04/08 01:20:39;;;;;;;95.47;57.72;;;154.50;2252.80;;;;;;5018213;28;20537;-87
2023/04/08 01:23:08;;;;;;;88.65;53.55;;;154.40;2252.80;;;;;;5018166;28;20380;-86
2023/04/08 01:25:36;;;;;;;79.05;50.15;;;154.30;2252.80;;;;;;5034358;28;20025;-83
2023/04/08 01:28:12;;;;;;;66.30;45.50;;;154.50;2252.80;;;;;;5018067;28;20116;-84
2023/04/08 01:30:40;;;;;;;61.63;41.13;;;154.30;2252.80;;;;;;5018126;28;20095;-83
2023/04/08 01:33:09;;;;;;;57.65;37.28;;;154.30;2252.80;;;;;;5017803;28;20026;-81
2023/04/08 01:35:35;;;;;;;57.17;37.25;;;154.20;2252.80;;;;;;5018068;28;20032;-83
2023/04/08 01:38:04;;;;;;;60.40;39.22;;;154.30;2252.80;;;;;;5017561;28;20084;-82
2023/04/08 01:40:31;;;;;;;58.90;41.28;;;154.20;2252.80;;;;;;5017708;28;20486;-84
2023/04/08 01:42:59;;;;;;;74.95;46.55;;;154.20;2252.80;;;;;;5034440;28;20025;-83
2023/04/08 01:45:26;;;;;;;84.50;52.13;;;154.30;2252.80;;;;;;5017731;28;20087;-84
2023/04/08 01:47:53;;;;;;;95.95;56.95;;;154.30;2252.80;;;;;;5017540;28;20037;-82
2023/04/08 01:50:20;;;;;;;89.10;54.80;;;154.30;2252.80;;;;;;5017642;28;20094;-82
2023/04/08 01:52:48;;;;;;;64.78;42.85;;;154.20;2252.80;;;;;;5017640;28;20025;-84
2023/04/08 01:55:15;;;;;;;56.03;37.92;;;153.90;2252.80;;;;;;5017248;28;20401;-81
2023/04/08 01:57:46;;;;;;;48.85;35.75;;;154.10;2252.80;;;;;;5017508;28;20077;-82
2023/04/08 02:00:13;;;;;;;45.30;32.15;;;154.00;2252.80;;;;;;5017228;28;20021;-84
2023/04/08 02:02:41;;;;;;;61.58;40.85;;;154.10;2252.80;;;;;;5017419;28;20037;-81
2023/04/08 02:05:08;;;;;;;73.60;47.83;;;154.30;2252.80;;;;;;5017324;28;20027;-83
2023/04/08 02:07:34;;;;;;;70.68;44.03;;;154.20;2252.80;;;;;;5017139;28;20030;-84
2023/04/08 02:10:00;;;;;;;67.75;44.60;;;154.40;2252.80;;;;;;5017315;28;20420;-82
2023/04/08 02:12:27;;;;;;;66.45;45.70;;;154.50;2252.80;;;;;;5033658;28;20116;-82
2023/04/08 02:14:53;;;;;;;81.00;52.20;;;154.50;2252.80;;;;;;5017015;28;20022;-81
2023/04/08 02:17:27;;;;;;;71.07;50.45;;;154.50;2252.80;;;;;;5017313;28;20537;-83
2023/04/08 02:20:14;;;;;;;71.95;49.83;;;154.20;2252.80;;;;;;5017148;28;20416;-82
2023/04/08 02:22:56;;;;;;;62.47;42.00;;;154.10;2252.80;;;;;;5016891;28;20051;-85
2023/04/08 02:25:24;;;;;;;55.83;39.45;;;153.90;2252.80;;;;;;5017220;28;20034;-82
2023/04/08 02:27:51;;;;;;;64.20;42.28;;;154.00;2252.80;;;;;;5017009;28;20025;-82
2023/04/08 02:30:19;;;;;;;65.93;45.58;;;154.30;2252.80;;;;;;5016734;28;20075;-86
2023/04/08 02:32:46;;;;;;;61.50;40.97;;;154.10;2252.80;;;;;;5033512;28;20530;-83
2023/04/08 02:35:13;;;;;;;61.30;40.83;;;154.00;2252.80;;;;;;5016768;28;20029;-84
2023/04/08 02:37:39;;;;;;;56.08;39.22;;;153.80;2252.80;;;;;;5016538;28;20059;-81
2023/04/08 02:40:27;;;;;;;49.90;34.47;;;153.80;2252.80;;;;;;5024028;28;20057;-82
2023/04/08 02:42:54;;;;;;;49.00;34.08;;;154.00;2252.80;;;;;;5036966;28;20021;-82
2023/04/08 02:45:20;;;;;;;48.80;32.90;;;154.00;2252.80;;;;;;5016684;28;20112;-82
2023/04/08 02:47:46;;;;;;;52.45;35.20;;;153.90;2252.80;;;;;;5016614;28;20025;-82
2023/04/08 02:50:12;;;;;;;49.42;34.97;;;154.10;2252.80;;;;;;5024247;28;20029;-81
2023/04/08 02:52:38;;;;;;;57.75;39.75;;;154.00;2252.80;;;;;;5036228;28;20488;-82
2023/04/08 02:55:08;;;;;;;52.03;36.53;;;154.10;2252.80;;;;;;5035346;28;20028;-84
2023/04/08 02:57:36;;;;;;;63.45;40.65;;;154.10;2252.80;;;;;;5036207;28;20096;-84
2023/04/08 03:00:03;;;;;;;62.53;41.28;;;154.20;2252.80;;;;;;5036304;28;20025;-82
2023/04/08 03:02:29;;;;;;;65.30;43.55;;;154.40;2252.80;;;;;;5036113;28;20460;-82
2023/04/08 03:04:55;;;;;;;61.10;39.70;;;154.40;2252.80;;;;;;5035845;28;20083;-83
2023/04/08 03:07:21;;;;;;;54.22;34.90;;;154.30;2252.80;;;;;;5036073;28;20033;-84
2023/04/08 03:09:47;;;;;;;51.45;34.05;;;154.30;2252.80;;;;;;5036356;28;20031;-84
2023/04/08 03:12:12;;;;;;;55.50;37.47;;;154.30;2252.80;;;;;;5035834;28;20542;-85
2023/04/08 03:14:38;;;;;;;63.80;41.08;;;154.40;2252.80;;;;;;5036047;28;20047;-85
2023/04/08 03:17:04;;;;;;;61.35;42.67;;;154.40;2252.80;;;;;;5035792;28;20036;-86
2023/04/08 03:19:30;;;;;;;68.43;45.67;;;154.50;2252.80;;;;;;5035910;28;20029;-82
2023/04/08 03:21:55;;;;;;;56.88;42.33;;;154.50;2252.80;;;;;;5036311;28;20380;-85
2023/04/08 03:24:21;;;;;;;65.05;46.35;;;154.40;2252.80;;;;;;5035852;28;20376;-79
2023/04/08 03:26:47;;;;;;;59.42;42.67;;;154.30;2252.80;;;;;;5035829;28;20094;-85
2023/04/08 03:29:13;;;;;;;63.63;41.92;;;154.40;2252.80;;;;;;5035978;28;20025;-84
2023/04/08 03:31:39;;;;;;;61.83;43.10;;;154.50;2252.80;;;;;;5035422;28;20033;-88
2023/04/08 03:34:05;;;;;;;70.65;45.97;;;154.30;2252.80;;;;;;5035953;28;20022;-85
2023/04/08 03:36:31;;;;;;;70.50;47.33;;;154.10;2252.80;;;;;;5035554;28;20025;-83
2023/04/08 03:38:56;;;;;;;52.70;36.20;;;154.10;2252.80;;;;;;5035696;28;20025;-86
2023/04/08 03:41:22;;;;;;;44.03;32.03;;;154.10;2252.80;;;;;;5035857;28;20035;-81
2023/04/08 03:43:48;;;;;;;52.03;34.38;;;154.00;2252.80;;;;;;5035801;28;20029;-83
2023/04/08 03:46:14;;;;;;;52.17;32.80;;;154.10;2252.80;;;;;;5035438;28;20112;-83
2023/04/08 03:48:40;;;;;;;40.08;29.90;;;154.30;2252.80;;;;;;5035712;28;20079;-84
2023/04/08 03:51:06;;;;;;;38.05;27.83;;;154.10;2252.80;;;;;;5036564;28;20029;-80
2023/04/08 03:53:31;;;;;;;35.45;28.40;;;154.10;2252.80;;;;;;5039366;28;20032;-83
2023/04/08 03:55:59;;;;;;;39.40;27.08;;;154.00;2252.80;;;;;;5039650;28;20021;-83
2023/04/08 03:58:25;;;;;;;46.78;30.95;;;153.90;2252.80;;;;;;5039754;28;20028;-83
2023/04/08 04:00:50;;;;;;;46.22;30.75;;;153.90;2252.80;;;;;;5039238;28;20491;-83
2023/04/08 04:03:17;;;;;;;50.75;34.47;;;154.00;2252.80;;;;;;5039508;28;20032;-84
2023/04/08 04:05:42;;;;;;;47.30;34.33;;;154.10;2252.80;;;;;;5039553;28;20021;-85
2023/04/08 04:08:08;;;;;;;41.35;30.58;;;154.10;2252.80;;;;;;5039048;28;20039;-83
2023/04/08 04:10:34;;;;;;;45.92;33.15;;;154.00;2252.80;;;;;;5039424;28;20033;-85
2023/04/08 04:13:00;;;;;;;42.53;32.55;;;153.70;2252.80;;;;;;5039095;28;20399;-85
2023/04/08 04:15:26;;;;;;;52.80;35.17;;;154.10;2252.80;;;;;;5039345;28;20033;-84
2023/04/08 04:17:52;;;;;;;45.45;33.13;;;154.10;2252.80;;;;;;5039151;28;20033;-85
2023/04/08 04:20:18;;;;;;;42.42;31.35;;;154.10;2252.80;;;;;;5039021;28;20051;-85
2023/04/08 04:22:44;;;;;;;43.42;34.03;;;154.20;2252.80;;;;;;5039038;28;20099;-85
2023/04/08 04:25:10;;;;;;;47.97;33.95;;;154.10;2252.80;;;;;;5039257;28;20036;-84
2023/04/08 04:27:36;;;;;;;52.15;35.67;;;154.10;2252.80;;;;;;5038684;28;20025;-84
2023/04/08 04:30:03;;;;;;;62.50;42.53;;;154.10;2252.80;;;;;;5039092;28;20029;-83
2023/04/08 04:32:29;;;;;;;67.78;42.13;;;153.90;2252.80;;;;;;5039122;28;20033;-85
2023/04/08 04:34:55;;;;;;;67.05;44.60;;;154.00;2252.80;;;;;;5038445;28;20098;-82
2023/04/08 04:37:20;;;;;;;62.72;41.97;;;154.10;2252.80;;;;;;5038725;28;20073;-82
2023/04/08 04:39:46;;;;;;;65.32;43.53;;;154.10;2252.80;;;;;;5038878;28;20524;-83
2023/04/08 04:42:12;;;;;;;68.53;46.13;;;154.30;2252.80;;;;;;5038371;28;20048;-85
2023/04/08 04:44:38;;;;;;;65.45;45.00;;;154.20;2252.80;;;;;;5038766;28;20039;-84
2023/04/08 04:47:03;;;;;;;67.00;44.70;;;154.20;2252.80;;;;;;5038498;28;20025;-83
2023/04/08 04:49:29;;;;;;;66.35;44.28;;;154.30;2252.80;;;;;;5037358;28;20387;-82
2023/04/08 04:51:55;;;;;;;63.88;44.40;;;154.30;2252.80;;;;;;5037665;28;20025;-85
2023/04/08 04:54:21;;;;;;;62.95;42.83;;;154.30;2252.80;;;;;;5037748;28;20107;-83
2023/04/08 04:56:46;;;;;;;65.45;46.97;;;154.10;2252.80;;;;;;5038213;28;20385;-85
2023/04/08 04:59:12;;;;;;;65.00;42.70;;;154.00;2252.80;;;;;;5036745;28;20025;-85
2023/04/08 05:01:39;;;;;;;64.88;41.22;;;154.00;2252.80;;;;;;5037875;28;20508;-85
2023/04/08 05:04:06;;;;;;;55.85;40.05;;;153.90;2252.80;;;;;;5037414;28;20468;-84
2023/04/08 05:06:32;;;;;;;53.60;36.88;;;153.90;2252.80;;;;;;5038256;28;20033;-80
2023/04/08 05:08:58;;;;;;;55.25;39.60;;;154.00;2252.80;;;;;;5038181;28;20107;-83
2023/04/08 05:11:24;;;;;;;53.67;38.47;;;154.00;2252.80;;;;;;5038231;28;20376;-84
2023/04/08 05:13:49;;;;;;;50.53;37.80;;;154.20;2252.80;;;;;;5038198;28;20025;-81
2023/04/08 05:16:15;;;;;;;52.75;38.13;;;154.20;2252.80;;;;;;5037986;28;20032;-83
2023/04/08 05:18:41;;;;;;;58.65;39.05;;;154.20;2252.80;;;;;;5038294;28;20032;-83
2023/04/08 05:21:07;;;;;;;53.60;40.47;;;154.30;2252.80;;;;;;5054574;28;20036;-87
2023/04/08 05:23:36;;;;;;;59.00;42.40;;;154.10;2252.80;;;;;;5037747;28;20022;-82
2023/04/08 05:26:05;;;;;;;63.50;43.03;;;154.00;2252.80;;;;;;5038125;28;20078;-86
2023/04/08 05:28:31;;;;;;;65.85;45.95;;;154.10;2252.80;;;;;;5038057;28;20033;-86
2023/04/08 05:30:57;;;;;;;61.85;45.28;;;154.10;2252.80;;;;;;5038735;28;20029;-81
2023/04/08 05:33:23;;;;;;;61.72;44.90;;;154.10;2252.80;;;;;;5043344;28;20096;-82
2023/04/08 05:35:49;;;;;;;71.80;52.17;;;154.20;2252.80;;;;;;5039727;28;20072;-82
2023/04/08 05:38:14;;;;;;;75.93;56.03;;;154.40;2252.80;;;;;;5037316;28;20080;-82
2023/04/08 05:40:40;;;;;;;79.15;56.45;;;154.20;2252.80;;;;;;5037649;28;20060;-83
2023/04/08 05:43:06;;;;;;;72.80;51.88;;;154.20;2252.80;;;;;;5055365;28;20036;-84
2023/04/08 05:45:32;;;;;;;68.20;46.17;;;154.20;2252.80;;;;;;5037330;28;20064;-83
2023/04/08 05:47:57;;;;;;;68.75;47.58;;;154.20;2252.80;;;;;;5037513;28;20465;-86
2023/04/08 05:50:23;;;;;;;63.13;45.72;;;154.20;2252.80;;;;;;5037544;28;20029;-82
2023/04/08 05:52:49;;;;;;;57.47;40.55;;;154.20;2252.80;;;;;;5037222;28;20040;-82
2023/04/08 05:55:15;;;;;;;65.60;42.30;;;154.30;2252.80;;;;;;5037507;28;20099;-81
2023/04/08 05:57:41;;;;;;;62.00;43.17;;;154.30;2252.80;;;;;;5036589;28;20353;-84
2023/04/08 06:00:08;;;;;;;67.25;45.08;;;154.50;2252.80;;;;;;5037003;28;20025;-87
2023/04/08 06:02:35;;;;;;;68.32;44.78;;;154.40;2252.80;;;;;;5036363;28;20119;-86
2023/04/08 06:05:02;;;;;;;62.88;45.55;;;154.40;2252.80;;;;;;5036962;28;20024;-81
2023/04/08 06:07:29;;;;;;;61.88;42.97;;;179.40;2252.80;;;;;;5037104;28;20029;-85
2023/04/08 06:09:55;;;;;;;55.60;38.78;;;154.40;2252.80;;;;;;5037192;28;20025;-84
2023/04/08 06:12:21;;;;;;;50.10;40.17;;;154.50;2252.80;;;;;;5036829;28;20032;-86
2023/04/08 06:14:46;;;;;;;52.17;35.28;;;154.50;2252.80;;;;;;5036317;28;20035;-84
2023/04/08 06:17:13;;;;;;;50.63;36.08;;;154.40;2252.80;;;;;;5036956;28;20102;-82
2023/04/08 06:19:38;;;;;;;51.22;38.75;;;154.40;2252.80;;;;;;5036850;28;20036;-81
2023/04/08 06:22:04;;;;;;;51.47;36.28;;;154.50;2252.80;;;;;;5036978;28;20528;-83
2023/04/08 06:24:30;;;;;;;59.70;43.85;;;179.20;2252.80;;;;;;5036436;28;20025;-85
2023/04/08 06:26:56;;;;;;;55.35;38.97;;;179.20;2252.80;;;;;;5035775;28;20033;-81
2023/04/08 06:29:22;;;;;;;49.25;39.80;;;154.50;2252.80;;;;;;5035887;28;20033;-85
2023/04/08 06:31:49;;;;;;;46.70;36.90;;;154.40;2252.80;;;;;;5035985;28;20457;-85
2023/04/08 06:34:15;;;;;;;46.80;35.65;;;154.50;2252.80;;;;;;5036429;28;20115;-80
2023/04/08 06:36:41;;;;;;;52.72;38.55;;;154.50;2252.80;;;;;;5036589;28;20033;-84
2023/04/08 06:39:07;;;;;;;57.83;43.63;;;154.50;2252.80;;;;;;5036625;28;20091;-83
2023/04/08 06:41:33;;;;;;;50.22;38.65;;;179.20;2252.80;;;;;;5036041;28;20457;-82
2023/04/08 06:43:58;;;;;;;61.63;45.83;;;179.20;2252.80;;;;;;5036545;28;20033;-82
2023/04/08 06:46:25;;;;;;;59.50;43.92;;;179.30;2252.80;;;;;;5036388;28;20025;-84
2023/04/08 06:48:51;;;;;;;62.70;45.10;;;179.40;2252.80;;;;;;5036026;28;20536;-81
2023/04/08 06:51:16;;;;;;;57.42;43.70;;;179.40;2252.80;;;;;;5036344;28;20112;-81
2023/04/08 06:53:42;;;;;;;56.25;44.67;;;179.40;2252.80;;;;;;5036264;28;20090;-86
2023/04/08 06:56:08;;;;;;;52.17;39.03;;;179.50;2252.80;;;;;;5035976;28;20167;-85
2023/04/08 06:58:34;;;;;;;57.50;41.17;;;179.50;2252.80;;;;;;5034764;28;20039;-85
2023/04/08 07:01:01;;;;;;;52.08;40.85;;;179.50;2252.80;;;;;;5035899;28;20447;-84
2023/04/08 07:03:27;;;;;;;55.50;39.15;;;179.40;2252.80;;;;;;5035350;28;20111;-81
2023/04/08 07:05:53;;;;;;;58.85;39.75;;;179.50;2252.80;;;;;;5036152;28;20079;-85
2023/04/08 07:08:19;;;;;;;59.92;43.78;;;179.60;2252.80;;;;;;5035666;28;20120;-82
2023/04/08 07:10:45;;;;;;;50.55;38.65;;;179.60;2252.80;;;;;;5036204;28;20029;-81
2023/04/08 07:13:11;;;;;;;59.30;41.42;;;179.60;2252.80;;;;;;5036041;28;20044;-79
2023/04/08 07:15:36;;;;;;;57.10;39.53;;;179.90;2252.80;;;;;;5035786;28;20078;-85
2023/04/08 07:18:03;;;;;;;49.42;36.03;;;179.70;2252.80;;;;;;5035841;28;20033;-84
2023/04/08 07:20:29;;;;;;;44.47;35.88;;;179.70;2252.80;;;;;;5036035;28;20120;-81
2023/04/08 07:22:55;;;;;;;53.63;38.17;;;179.80;2252.80;;;;;;5035748;28;20021;-85
2023/04/08 07:25:21;;;;;;;46.58;34.25;;;179.90;2252.80;;;;;;5035797;28;20029;-82
2023/04/08 07:27:46;;;;;;;49.92;36.78;;;179.90;2252.80;;;;;;5035790;28;20028;-82
2023/04/08 07:30:12;;;;;;;59.28;41.88;;;180.00;2252.80;;;;;;5035644;28;20039;-82
2023/04/08 07:32:38;;;;;;;52.63;40.85;;;180.00;2252.80;;;;;;5035696;28;20543;-84
2023/04/08 07:35:05;;;;;;;56.70;39.67;;;204.80;2252.80;;;;;;5035889;28;20025;-81
2023/04/08 07:37:31;;;;;;;52.42;37.65;;;204.90;2252.80;;;;;;5031990;28;20080;-84
2023/04/08 07:39:56;;;;;;;53.72;39.17;;;205.10;2252.80;;;;;;5032181;28;20069;-84
2023/04/08 07:42:22;;;;;;;49.92;38.33;;;205.20;2252.80;;;;;;5032446;28;20117;-81
2023/04/08 07:44:49;;;;;;;44.92;33.58;;;205.20;2252.80;;;;;;5031991;28;20033;-85
2023/04/08 07:47:15;;;;;;;38.67;31.05;;;205.30;2252.80;;;;;;5019673;28;20038;-78
2023/04/08 07:49:41;;;;;;;42.25;32.55;;;205.40;2252.80;;;;;;5020610;28;20028;-82
2023/04/08 07:52:06;;;;;;;53.55;37.25;;;205.50;2252.80;;;;;;5031372;28;20026;-82
2023/04/08 07:54:36;;;;;;;51.53;36.92;;;205.60;2252.80;;;;;;5030920;28;20025;-83
2023/04/08 07:57:01;;;;;;;47.60;34.03;;;205.70;2252.80;;;;;;5013184;28;20025;-83
2023/04/08 07:59:28;;;;;;;46.20;34.30;;;230.40;2252.80;;;;;;5029547;28;20428;-86
2023/04/08 08:01:54;;;;;;;44.78;34.22;;;230.50;2252.80;;;;;;5031141;28;20397;-82
2023/04/08 08:04:20;;;;;;;45.97;34.55;;;230.60;2252.80;;;;;;5031321;28;20036;-82
2023/04/08 08:06:46;;;;;;;49.00;36.08;;;230.60;2252.80;;;;;;5030270;28;20033;-84
2023/04/08 08:09:12;;;;;;;63.35;49.20;;;230.60;2252.80;;;;;;5024777;28;20037;-82
2023/04/08 08:11:38;;;;;;;57.58;46.67;;;230.60;2252.80;;;;;;5031584;28;20108;-84
2023/04/08 08:14:04;;;;;;;62.95;48.15;;;230.80;2252.80;;;;;;5019505;28;20562;-82
2023/04/08 08:16:32;;;;;;;60.25;47.15;;;230.70;2252.80;;;;;;5027746;28;20120;-84
2023/04/08 08:18:58;;;;;;;65.82;50.85;;;231.00;2252.80;;;;;;5028024;28;20448;-85
2023/04/08 08:21:25;;;;;;;55.00;41.03;;;231.20;2252.80;;;;;;5018823;28;20034;-84
2023/04/08 08:23:53;;;;;;;65.05;42.55;;;231.20;2252.80;;;;;;5031911;28;20416;-84
2023/04/08 08:26:20;;;;;;;47.95;37.60;;;231.30;2252.80;;;;;;5017527;28;20041;-82
2023/04/08 08:28:45;;;;;;;33.28;25.50;;;256.10;2252.80;;;;;;5028396;28;20477;-85
2023/04/08 08:31:11;;;;;;;43.00;33.35;;;256.20;2252.80;;;;;;5016955;28;20078;-82
2023/04/08 08:33:37;;;;;;;42.15;33.40;;;256.50;2252.80;;;;;;5022780;28;20496;-82
2023/04/08 08:36:04;;;;;;;42.00;29.77;;;256.70;2252.80;;;;;;5023723;28;20470;-82
2023/04/08 08:38:30;;;;;;;41.33;34.83;;;256.90;2252.80;;;;;;5018164;28;20046;-83
2023/04/08 08:40:58;;;;;;;40.20;32.17;;;281.60;2278.40;;;;;;5034467;28;20026;-84
2023/04/08 08:43:25;;;;;;;37.67;30.10;;;281.60;2278.40;;;;;;5027398;28;20025;-84
2023/04/08 08:45:51;;;;;;;32.35;26.65;;;281.60;2278.40;;;;;;5035686;28;20102;-81
2023/04/08 08:48:16;;;;;;;41.83;30.83;;;281.70;2278.40;;;;;;5034547;28;20090;-84
2023/04/08 08:50:42;;;;;;;27.58;22.48;;;281.80;2278.40;;;;;;5028248;28;20037;-85
2023/04/08 08:53:08;;;;;;;32.75;23.75;;;282.00;2278.40;;;;;;5033774;28;20033;-86
2023/04/08 08:55:34;;;;;;;32.10;21.40;;;282.10;2278.40;;;;;;5028079;28;20026;-84
2023/04/08 08:58:01;;;;;;;42.25;30.52;;;282.10;2278.40;;;;;;5027223;28;20377;-85
2023/04/08 09:00:34;;;;;;;33.53;25.45;;;282.20;2278.40;;;;;;5038031;28;20036;-88
2023/04/08 09:03:20;;;;;;;32.05;25.98;;;282.20;2278.40;;;;;;5054118;28;20025;-87
2023/04/08 09:05:48;;;;;;;41.55;30.45;;;282.50;2278.40;;;;;;5035405;28;20041;-84
2023/04/08 09:08:34;;;;;;;26.15;20.02;;;307.20;2304.00;;;;;;5022165;28;20029;-86
2023/04/08 09:11:17;;;;;;;21.20;17.48;;;282.50;2278.40;;;;;;5031491;28;20472;-85
2023/04/08 09:13:44;;;;;;;27.70;21.95;;;282.50;2278.40;;;;;;5023504;28;20032;-84
2023/04/08 09:16:16;;;;;;;39.88;26.75;;;307.20;2304.00;;;;;;5035936;28;20041;-87
2023/04/08 09:18:43;;;;;;;32.97;22.90;;;307.30;2304.00;;;;;;5034844;28;20495;-85
2023/04/08 09:21:11;;;;;;;33.25;23.35;;;307.50;2304.00;;;;;;5020071;28;20110;-84
2023/04/08 09:23:47;;;;;;;55.72;33.90;;;307.20;2304.00;;;;;;5035166;28;20377;-85
2023/04/08 09:26:21;;;;;;;86.35;44.28;;;307.40;2304.00;;;;;;5023841;28;20030;-86
2023/04/08 09:29:09;;;;;;;44.92;28.08;;;307.60;2304.00;;;;;;5031617;28;20034;-85
2023/04/08 09:31:40;;;;;;;97.22;51.10;;;307.80;2304.00;;;;;;5036180;28;20056;-88
2023/04/08 09:34:13;;;;;;;67.47;38.40;;;307.80;2304.00;;;;;;5037336;28;20029;-85
2023/04/08 09:36:39;;;;;;;;;;;308.00;2304.00;;;;;;5037534;28;20025;-86
2023/04/08 09:39:06;;;;;;;53.50;30.23;;;308.00;2304.00;;;;;;5037996;28;19905;-85
2023/04/08 09:41:36;;;;;;;32.45;22.42;;;308.10;2304.00;;;;;;5055840;28;20078;-86
2023/04/08 09:44:07;;;;;;;59.28;33.58;;;332.90;2329.60;;;;;;5037957;28;20053;-82
2023/04/08 09:46:47;;;;;;;31.38;20.75;;;333.00;2329.60;;;;;;5055513;28;20461;-85
2023/04/08 09:49:27;;;;;;;51.72;31.58;;;333.20;2304.00;;;;;;5036198;28;20032;-83
2023/04/08 09:52:14;;;;;;;38.88;24.95;;;333.20;2278.40;;;;;;5037815;28;20124;-84
2023/04/08 09:55:01;;;;;;;33.70;23.75;;;333.30;2278.40;;;;;;5037627;28;20029;-81
2023/04/08 09:58:05;;;;;;;39.67;26.65;;;333.50;2252.80;;;;;;5055031;28;20033;-81
2023/04/08 10:00:40;;;;;;;19.92;16.08;;;333.60;2227.20;;;;;;5026634;28;20037;-83
2023/04/08 10:03:28;;;;;;;35.10;26.33;;;333.70;2176.00;;;;;;5054977;28;20052;-82
2023/04/08 10:05:58;;;;;;;27.05;19.55;;;358.40;2176.00;;;;;;5054960;28;20025;-81
2023/04/08 10:08:25;;;;;;;28.48;22.00;;;358.60;2150.40;;;;;;5030212;28;20378;-84
2023/04/08 10:10:51;;;;;;;19.90;14.73;;;358.80;2150.40;;;;;;5021847;28;20032;-82
2023/04/08 10:13:17;;;;;;;23.10;18.17;;;358.80;2073.60;;;;;;5035645;28;20021;-81
2023/04/08 10:15:46;;;;;;;20.05;14.85;;;;;;;;;;5054527;28;20071;-79
2023/04/08 10:18:17;;;;;;;11.65;9.75;;;359.10;2099.20;;;;;;5026797;28;20037;-83
2023/04/08 10:20:45;;;;;;;17.10;12.27;;;359.10;1996.80;;;;;;5031108;28;20108;-81
2023/04/08 10:23:16;;;;;;;17.00;12.80;;;359.00;2073.60;;;;;;5020073;28;20040;-83
2023/04/08 10:25:46;;;;;;;18.52;14.82;;;359.30;2099.20;;;;;;5030759;28;20022;-83
2023/04/08 10:28:18;;;;;;;15.75;12.55;;;384.10;2073.60;;;;;;5045499;28;20037;-79
2023/04/08 10:30:51;;;;;;;16.67;12.82;;;384.20;2073.60;;;;;;5036735;28;20036;-81
2023/04/08 10:33:18;;;;;;;27.42;18.75;;;384.40;2022.40;;;;;;5037374;28;20100;-80
2023/04/08 10:35:47;;;;;;;21.60;16.00;;;384.70;1996.80;;;;;;5030612;28;20028;-77
2023/04/08 10:38:15;;;;;;;11.85;9.70;;;384.90;1996.80;;;;;;5026010;28;20048;-80
2023/04/08 10:40:42;;;;;;;15.32;11.13;;;384.70;1945.60;;;;;;5040510;28;20462;-80
2023/04/08 10:43:10;;;;;;;15.00;11.90;;;409.60;1996.80;;;;;;5033692;28;20029;-82
2023/04/08 10:45:36;;;;;;;15.50;12.40;;;409.80;1945.60;;;;;;5031523;28;20028;-77
2023/04/08 10:48:23;;;;;;;12.95;9.85;;;;;;;;;;5023654;28;20047;-79
2023/04/08 10:50:54;;;;;;;15.05;10.57;;;410.20;1945.60;;;;;;5020508;28;20033;-79
2023/04/08 10:53:34;;;;;;;15.55;10.88;;;410.20;1945.60;;;;;;5053141;28;20040;-77
2023/04/08 10:56:06;;;;;;;15.65;11.13;;;410.50;1920.00;;;;;;5027520;28;20108;-78
2023/04/08 10:58:32;;;;;;;13.80;12.27;;;410.50;1868.80;;;;;;5033758;28;20420;-76
2023/04/08 11:01:07;;;;;;;12.75;9.55;;;435.30;1843.20;;;;;;5031882;28;20388;-78
2023/04/08 11:03:34;;;;;;;10.57;8.93;;;;;;;;;;5037155;28;20017;-79
2023/04/08 11:06:01;;;;;;;11.32;8.40;;;435.80;1868.80;;;;;;5035606;28;20017;-82
2023/04/08 11:08:34;;;;;;;11.70;9.60;;;;;;;;;;5024300;28;20064;-81
2023/04/08 11:11:04;;;;;;;12.48;8.95;;;435.90;1817.60;;;;;;5016557;28;20064;-82
2023/04/08 11:13:30;;;;;;;10.93;8.68;;;435.70;1817.60;;;;;;5031764;28;20160;-78
2023/04/08 11:15:58;;;;;;;11.48;8.82;;;436.00;1843.20;;;;;;5041441;28;20028;-81
2023/04/08 11:18:24;;;;;;;9.13;7.10;;;436.10;1817.60;;;;;;5023955;28;20025;-80
2023/04/08 11:20:51;;;;;;;12.10;7.45;;;435.80;1792.00;;;;;;5015940;28;20033;-82
2023/04/08 11:23:17;;;;;;;11.35;9.10;;;435.80;1766.40;;;;;;5018020;28;20021;-83
2023/04/08 11:25:45;;;;;;;14.73;6.95;;;460.80;1817.60;;;;;;5029761;28;20022;-83
2023/04/08 11:28:12;;;;;;;9.50;6.38;;;436.00;1766.40;;;;;;5026528;28;20037;-82
2023/04/08 11:30:39;;;;;;;10.98;7.85;;;435.80;1766.40;;;;;;5021783;28;20095;-81
2023/04/08 11:33:06;;;;;;;12.55;9.10;;;435.80;1766.40;;;;;;5049989;28;20131;-83
2023/04/08 11:35:33;;;;;;;11.40;9.25;;;460.80;1843.20;;;;;;5020197;28;20111;-81
2023/04/08 11:37:59;;;;;;;13.25;9.90;;;;;;;;;;5044919;28;20041;-82
2023/04/08 11:40:26;;;;;;;11.68;7.70;;;461.00;1766.40;;;;;;5027311;28;20021;-83
2023/04/08 11:42:52;;;;;;;13.18;7.93;;;;;;;;;;5035483;28;20075;-79
2023/04/08 11:45:22;;;;;;;14.07;10.70;;;461.70;1766.40;;;;;;5018567;28;20021;-80
2023/04/08 11:47:48;;;;;;;20.33;17.08;;;486.70;1766.40;;;;;;5053338;28;20031;-82
2023/04/08 11:50:32;;;;;;;13.15;10.00;;;;;;;;;;5029734;28;20061;-80
2023/04/08 11:52:59;;;;;;;18.50;12.23;;;;;;;;;;5044365;28;20033;-83
2023/04/08 11:55:32;;;;;;;9.00;7.43;;;512.20;1664.00;;;;;;5050726;28;20021;-81
2023/04/08 11:58:06;;;;;;;13.73;9.70;;;487.10;1664.00;;;;;;5051889;28;20033;-80
2023/04/08 12:00:32;;;;;;;11.40;5.75;;;487.20;1689.60;;;;;;5033175;28;20035;-81
2023/04/08 12:02:59;;;;;;;15.25;12.18;;;486.40;1689.60;;;;;;5034340;28;20115;-83
2023/04/08 12:05:25;;;;;;;24.25;16.00;;;486.40;1740.80;;;;;;5034839;28;20044;-82
2023/04/08 12:07:51;;;;;;;15.73;12.43;;;486.60;1715.20;;;;;;5053250;28;20112;-83